sensor_id;sensor_type;location;lat;lon;timestamp;P1;durP1;ratioP1;P2;durP2;ratioP2
28180;SDS011;15464;50.988;10.318;2023-02-01T00:00:23;12.68;;;5.05;;
28180;SDS011;15464;50.988;10.318;2023-02-01T00:02:50;10.68;;;4.90;;
28180;SDS011;15464;50.988;10.318;2023-02-01T00:05:16;10.35;;;4.93;;
28180;SDS011;15464;50.988;10.318;2023-02-01T00:07:44;16.35;;;5.95;;
28180;SDS011;15464;50.988;10.318;2023-02-01T00:10:14;9.52;;;4.70;;
28180;SDS011;15464;50.988;10.318;2023-02-01T00:12:41;16.40;;;5.97;;
28180;SDS011;15464;50.988;10.318;2023-02-01T00:15:08;12.82;;;5.28;;
28180;SDS011;15464;50.988;10.318;2023-02-01T00:17:35;12.52;;;4.55;;
28180;SDS011;15464;50.988;10.318;2023-02-01T00:20:02;11.43;;;4.78;;
28180;SDS011;15464;50.988;10.318;2023-02-01T00:22:29;11.13;;;5.20;;
28180;SDS011;15464;50.988;10.318;2023-02-01T00:24:56;17.23;;;4.85;;
28180;SDS011;15464;50.988;10.318;2023-02-01T00:27:22;13.15;;;4.75;;
28180;SDS011;15464;50.988;10.318;2023-02-01T00:29:49;17.70;;;4.82;;
28180;SDS011;15464;50.988;10.318;2023-02-01T00:32:16;15.52;;;5.00;;
28180;SDS011;15464;50.988;10.318;2023-02-01T00:34:42;12.52;;;3.97;;
28180;SDS011;15464;50.988;10.318;2023-02-01T00:37:09;13.25;;;4.97;;
28180;SDS011;15464;50.988;10.318;2023-02-01T00:39:36;15.90;;;4.80;;
28180;SDS011;15464;50.988;10.318;2023-02-01T00:42:02;18.02;;;5.40;;
28180;SDS011;15464;50.988;10.318;2023-02-01T00:44:29;16.23;;;5.18;;
28180;SDS011;15464;50.988;10.318;2023-02-01T00:46:59;12.45;;;5.72;;
28180;SDS011;15464;50.988;10.318;2023-02-01T00:49:27;14.93;;;4.72;;
28180;SDS011;15464;50.988;10.318;2023-02-01T00:51:54;13.70;;;4.72;;
28180;SDS011;15464;50.988;10.318;2023-02-01T00:54:21;15.77;;;4.93;;
28180;SDS011;15464;50.988;10.318;2023-02-01T00:56:49;12.98;;;4.90;;
28180;SDS011;15464;50.988;10.318;2023-02-01T00:59:15;12.48;;;4.78;;
28180;SDS011;15464;50.988;10.318;2023-02-01T01:01:42;14.15;;;4.97;;
28180;SDS011;15464;50.988;10.318;2023-02-01T01:04:09;12.85;;;5.07;;
28180;SDS011;15464;50.988;10.318;2023-02-01T01:06:36;11.80;;;4.35;;
28180;SDS011;15464;50.988;10.318;2023-02-01T01:09:04;15.68;;;4.43;;
28180;SDS011;15464;50.988;10.318;2023-02-01T01:14:01;16.52;;;4.32;;
28180;SDS011;15464;50.988;10.318;2023-02-01T01:16:28;12.80;;;4.50;;
28180;SDS011;15464;50.988;10.318;2023-02-01T01:18:56;15.93;;;4.28;;
28180;SDS011;15464;50.988;10.318;2023-02-01T01:21:24;14.27;;;4.50;;
28180;SDS011;15464;50.988;10.318;2023-02-01T01:23:51;11.75;;;4.32;;
28180;SDS011;15464;50.988;10.318;2023-02-01T01:26:19;14.75;;;4.93;;
28180;SDS011;15464;50.988;10.318;2023-02-01T01:28:51;15.82;;;4.45;;
28180;SDS011;15464;50.988;10.318;2023-02-01T01:31:20;14.30;;;4.55;;
28180;SDS011;15464;50.988;10.318;2023-02-01T01:33:48;10.88;;;4.30;;
28180;SDS011;15464;50.988;10.318;2023-02-01T01:36:19;14.20;;;4.68;;
28180;SDS011;15464;50.988;10.318;2023-02-01T01:38:46;17.05;;;4.95;;
28180;SDS011;15464;50.988;10.318;2023-02-01T01:41:15;12.45;;;5.03;;
28180;SDS011;15464;50.988;10.318;2023-02-01T01:43:52;10.98;;;4.68;;
28180;SDS011;15464;50.988;10.318;2023-02-01T01:46:22;18.02;;;4.68;;
28180;SDS011;15464;50.988;10.318;2023-02-01T01:48:59;9.80;;;4.40;;
28180;SDS011;15464;50.988;10.318;2023-02-01T01:54:13;16.85;;;5.40;;
28180;SDS011;15464;50.988;10.318;2023-02-01T01:56:49;10.90;;;4.38;;
28180;SDS011;15464;50.988;10.318;2023-02-01T01:59:21;14.23;;;4.93;;
28180;SDS011;15464;50.988;10.318;2023-02-01T02:01:49;14.52;;;5.15;;
28180;SDS011;15464;50.988;10.318;2023-02-01T02:04:17;15.48;;;4.78;;
28180;SDS011;15464;50.988;10.318;2023-02-01T02:09:26;15.02;;;5.53;;
28180;SDS011;15464;50.988;10.318;2023-02-01T02:11:53;16.40;;;5.18;;
28180;SDS011;15464;50.988;10.318;2023-02-01T02:14:20;11.50;;;4.28;;
28180;SDS011;15464;50.988;10.318;2023-02-01T02:17:02;11.77;;;4.57;;
28180;SDS011;15464;50.988;10.318;2023-02-01T02:19:43;10.70;;;4.55;;
28180;SDS011;15464;50.988;10.318;2023-02-01T02:42:48;12.07;;;4.60;;
28180;SDS011;15464;50.988;10.318;2023-02-01T02:45:55;10.88;;;4.30;;
28180;SDS011;15464;50.988;10.318;2023-02-01T02:49:22;14.05;;;4.25;;
28180;SDS011;15464;50.988;10.318;2023-02-01T02:52:15;8.63;;;3.85;;
28180;SDS011;15464;50.988;10.318;2023-02-01T02:55:04;9.88;;;3.75;;
28180;SDS011;15464;50.988;10.318;2023-02-01T02:57:36;8.10;;;3.63;;
28180;SDS011;15464;50.988;10.318;2023-02-01T03:00:27;9.27;;;3.40;;
28180;SDS011;15464;50.988;10.318;2023-02-01T03:03:15;10.18;;;3.20;;
28180;SDS011;15464;50.988;10.318;2023-02-01T03:06:00;11.25;;;3.88;;
28180;SDS011;15464;50.988;10.318;2023-02-01T03:08:28;6.03;;;3.00;;
28180;SDS011;15464;50.988;10.318;2023-02-01T03:21:35;9.55;;;4.65;;
28180;SDS011;15464;50.988;10.318;2023-02-01T03:24:04;8.90;;;4.63;;
28180;SDS011;15464;50.988;10.318;2023-02-01T03:26:36;13.40;;;5.80;;
28180;SDS011;15464;50.988;10.318;2023-02-01T03:29:08;10.90;;;5.15;;
28180;SDS011;15464;50.988;10.318;2023-02-01T03:31:43;12.70;;;4.77;;
28180;SDS011;15464;50.988;10.318;2023-02-01T03:34:11;14.90;;;5.90;;
28180;SDS011;15464;50.988;10.318;2023-02-01T03:36:58;15.00;;;5.20;;
28180;SDS011;15464;50.988;10.318;2023-02-01T03:41:59;11.38;;;4.70;;
28180;SDS011;15464;50.988;10.318;2023-02-01T03:44:34;13.52;;;5.88;;
28180;SDS011;15464;50.988;10.318;2023-02-01T03:47:06;12.27;;;5.03;;
28180;SDS011;15464;50.988;10.318;2023-02-01T03:49:37;12.48;;;4.88;;
28180;SDS011;15464;50.988;10.318;2023-02-01T03:52:13;13.40;;;5.05;;
28180;SDS011;15464;50.988;10.318;2023-02-01T03:54:44;15.40;;;5.65;;
28180;SDS011;15464;50.988;10.318;2023-02-01T03:57:13;13.73;;;5.07;;
28180;SDS011;15464;50.988;10.318;2023-02-01T03:59:44;17.67;;;6.60;;
28180;SDS011;15464;50.988;10.318;2023-02-01T04:02:11;12.57;;;5.20;;
28180;SDS011;15464;50.988;10.318;2023-02-01T04:04:38;12.88;;;5.60;;
28180;SDS011;15464;50.988;10.318;2023-02-01T04:07:05;12.75;;;5.35;;
28180;SDS011;15464;50.988;10.318;2023-02-01T04:09:31;15.40;;;6.05;;
28180;SDS011;15464;50.988;10.318;2023-02-01T04:11:58;13.77;;;5.43;;
28180;SDS011;15464;50.988;10.318;2023-02-01T04:14:25;15.10;;;5.35;;
28180;SDS011;15464;50.988;10.318;2023-02-01T04:16:52;16.35;;;5.45;;
28180;SDS011;15464;50.988;10.318;2023-02-01T04:19:19;15.63;;;5.72;;
28180;SDS011;15464;50.988;10.318;2023-02-01T04:21:45;16.80;;;5.30;;
28180;SDS011;15464;50.988;10.318;2023-02-01T04:24:12;15.10;;;5.38;;
28180;SDS011;15464;50.988;10.318;2023-02-01T04:26:39;17.15;;;6.13;;
28180;SDS011;15464;50.988;10.318;2023-02-01T04:29:05;17.30;;;6.13;;
28180;SDS011;15464;50.988;10.318;2023-02-01T04:31:32;22.60;;;6.45;;
28180;SDS011;15464;50.988;10.318;2023-02-01T04:34:00;13.80;;;5.20;;
28180;SDS011;15464;50.988;10.318;2023-02-01T04:36:26;18.88;;;5.72;;
28180;SDS011;15464;50.988;10.318;2023-02-01T04:38:53;17.02;;;5.93;;
28180;SDS011;15464;50.988;10.318;2023-02-01T04:41:20;16.88;;;5.57;;
28180;SDS011;15464;50.988;10.318;2023-02-01T04:43:49;12.50;;;5.20;;
28180;SDS011;15464;50.988;10.318;2023-02-01T04:46:17;12.82;;;5.13;;
28180;SDS011;15464;50.988;10.318;2023-02-01T04:48:44;16.20;;;5.88;;
28180;SDS011;15464;50.988;10.318;2023-02-01T04:51:10;17.98;;;6.07;;
28180;SDS011;15464;50.988;10.318;2023-02-01T04:53:37;22.08;;;6.85;;
28180;SDS011;15464;50.988;10.318;2023-02-01T04:56:04;18.52;;;5.85;;
28180;SDS011;15464;50.988;10.318;2023-02-01T04:58:31;16.85;;;6.25;;
28180;SDS011;15464;50.988;10.318;2023-02-01T05:00:57;16.38;;;5.53;;
28180;SDS011;15464;50.988;10.318;2023-02-01T05:03:24;18.50;;;5.78;;
28180;SDS011;15464;50.988;10.318;2023-02-01T05:05:51;20.08;;;5.95;;
28180;SDS011;15464;50.988;10.318;2023-02-01T05:08:19;17.00;;;5.40;;
28180;SDS011;15464;50.988;10.318;2023-02-01T05:10:48;21.23;;;6.40;;
28180;SDS011;15464;50.988;10.318;2023-02-01T05:13:15;17.42;;;6.82;;
28180;SDS011;15464;50.988;10.318;2023-02-01T05:16:00;17.15;;;5.43;;
28180;SDS011;15464;50.988;10.318;2023-02-01T05:18:27;16.95;;;6.25;;
28180;SDS011;15464;50.988;10.318;2023-02-01T05:20:54;12.40;;;5.32;;
28180;SDS011;15464;50.988;10.318;2023-02-01T05:23:20;18.67;;;5.57;;
28180;SDS011;15464;50.988;10.318;2023-02-01T05:25:47;15.70;;;5.38;;
28180;SDS011;15464;50.988;10.318;2023-02-01T05:28:14;17.23;;;5.63;;
28180;SDS011;15464;50.988;10.318;2023-02-01T05:30:40;15.35;;;5.10;;
28180;SDS011;15464;50.988;10.318;2023-02-01T05:33:07;16.80;;;5.07;;
28180;SDS011;15464;50.988;10.318;2023-02-01T05:35:34;15.23;;;4.82;;
28180;SDS011;15464;50.988;10.318;2023-02-01T05:38:01;18.90;;;5.55;;
28180;SDS011;15464;50.988;10.318;2023-02-01T05:40:27;15.60;;;4.85;;
28180;SDS011;15464;50.988;10.318;2023-02-01T05:42:54;15.25;;;5.45;;
28180;SDS011;15464;50.988;10.318;2023-02-01T05:45:21;12.85;;;4.97;;
28180;SDS011;15464;50.988;10.318;2023-02-01T05:47:47;18.98;;;4.20;;
28180;SDS011;15464;50.988;10.318;2023-02-01T05:50:15;11.25;;;4.30;;
28180;SDS011;15464;50.988;10.318;2023-02-01T05:52:42;16.27;;;4.70;;
28180;SDS011;15464;50.988;10.318;2023-02-01T05:55:09;16.58;;;5.00;;
28180;SDS011;15464;50.988;10.318;2023-02-01T05:57:36;13.43;;;4.05;;
28180;SDS011;15464;50.988;10.318;2023-02-01T06:00:03;14.38;;;4.68;;
28180;SDS011;15464;50.988;10.318;2023-02-01T06:02:30;15.32;;;4.68;;
28180;SDS011;15464;50.988;10.318;2023-02-01T06:04:57;12.35;;;4.25;;
28180;SDS011;15464;50.988;10.318;2023-02-01T06:07:23;18.50;;;4.63;;
28180;SDS011;15464;50.988;10.318;2023-02-01T06:09:51;13.90;;;3.70;;
28180;SDS011;15464;50.988;10.318;2023-02-01T06:12:18;12.60;;;5.07;;
28180;SDS011;15464;50.988;10.318;2023-02-01T06:14:45;12.20;;;4.07;;
28180;SDS011;15464;50.988;10.318;2023-02-01T06:17:11;11.48;;;4.35;;
28180;SDS011;15464;50.988;10.318;2023-02-01T06:19:38;14.38;;;3.90;;
28180;SDS011;15464;50.988;10.318;2023-02-01T06:22:06;13.35;;;3.95;;
28180;SDS011;15464;50.988;10.318;2023-02-01T06:24:33;15.05;;;3.85;;
28180;SDS011;15464;50.988;10.318;2023-02-01T06:27:00;16.67;;;4.40;;
28180;SDS011;15464;50.988;10.318;2023-02-01T06:29:26;11.98;;;3.53;;
28180;SDS011;15464;50.988;10.318;2023-02-01T06:31:53;13.23;;;3.63;;
28180;SDS011;15464;50.988;10.318;2023-02-01T06:34:20;14.43;;;3.95;;
28180;SDS011;15464;50.988;10.318;2023-02-01T06:36:48;11.13;;;4.10;;
28180;SDS011;15464;50.988;10.318;2023-02-01T06:39:15;14.27;;;3.85;;
28180;SDS011;15464;50.988;10.318;2023-02-01T06:41:45;12.30;;;3.50;;
28180;SDS011;15464;50.988;10.318;2023-02-01T06:44:13;14.30;;;3.83;;
28180;SDS011;15464;50.988;10.318;2023-02-01T06:46:40;14.82;;;4.07;;
28180;SDS011;15464;50.988;10.318;2023-02-01T06:49:07;19.85;;;5.18;;
28180;SDS011;15464;50.988;10.318;2023-02-01T06:51:34;15.13;;;3.83;;
28180;SDS011;15464;50.988;10.318;2023-02-01T06:54:01;14.02;;;4.00;;
28180;SDS011;15464;50.988;10.318;2023-02-01T06:56:27;18.77;;;4.43;;
28180;SDS011;15464;50.988;10.318;2023-02-01T06:58:54;19.58;;;4.95;;
28180;SDS011;15464;50.988;10.318;2023-02-01T07:01:21;16.33;;;4.13;;
28180;SDS011;15464;50.988;10.318;2023-02-01T07:03:48;14.45;;;4.20;;
28180;SDS011;15464;50.988;10.318;2023-02-01T07:06:17;16.75;;;4.82;;
28180;SDS011;15464;50.988;10.318;2023-02-01T07:08:44;13.18;;;4.20;;
28180;SDS011;15464;50.988;10.318;2023-02-01T07:11:12;14.23;;;3.25;;
28180;SDS011;15464;50.988;10.318;2023-02-01T07:13:40;15.13;;;3.97;;
28180;SDS011;15464;50.988;10.318;2023-02-01T07:16:10;14.43;;;3.78;;
28180;SDS011;15464;50.988;10.318;2023-02-01T07:18:44;17.08;;;3.67;;
28180;SDS011;15464;50.988;10.318;2023-02-01T07:21:11;16.25;;;3.90;;
28180;SDS011;15464;50.988;10.318;2023-02-01T07:23:38;15.00;;;4.78;;
28180;SDS011;15464;50.988;10.318;2023-02-01T07:26:06;14.02;;;4.22;;
28180;SDS011;15464;50.988;10.318;2023-02-01T07:28:34;13.32;;;4.00;;
28180;SDS011;15464;50.988;10.318;2023-02-01T07:31:09;16.03;;;4.27;;
28180;SDS011;15464;50.988;10.318;2023-02-01T07:33:37;15.30;;;4.10;;
28180;SDS011;15464;50.988;10.318;2023-02-01T07:36:04;14.88;;;3.30;;
28180;SDS011;15464;50.988;10.318;2023-02-01T07:38:32;12.57;;;3.75;;
28180;SDS011;15464;50.988;10.318;2023-02-01T07:41:03;15.32;;;4.28;;
28180;SDS011;15464;50.988;10.318;2023-02-01T07:43:31;13.98;;;3.65;;
28180;SDS011;15464;50.988;10.318;2023-02-01T07:45:59;15.70;;;3.83;;
28180;SDS011;15464;50.988;10.318;2023-02-01T07:48:27;15.13;;;4.10;;
28180;SDS011;15464;50.988;10.318;2023-02-01T07:50:57;17.48;;;4.13;;
28180;SDS011;15464;50.988;10.318;2023-02-01T07:53:25;11.32;;;3.65;;
28180;SDS011;15464;50.988;10.318;2023-02-01T07:55:53;11.90;;;3.67;;
28180;SDS011;15464;50.988;10.318;2023-02-01T07:58:19;22.58;;;3.95;;
28180;SDS011;15464;50.988;10.318;2023-02-01T08:00:46;18.70;;;4.30;;
28180;SDS011;15464;50.988;10.318;2023-02-01T08:03:31;14.90;;;3.55;;
28180;SDS011;15464;50.988;10.318;2023-02-01T08:05:58;15.43;;;4.18;;
28180;SDS011;15464;50.988;10.318;2023-02-01T08:08:25;15.75;;;3.92;;
28180;SDS011;15464;50.988;10.318;2023-02-01T08:10:56;16.02;;;4.15;;
28180;SDS011;15464;50.988;10.318;2023-02-01T08:13:24;15.45;;;4.22;;
28180;SDS011;15464;50.988;10.318;2023-02-01T08:15:51;20.70;;;4.97;;
28180;SDS011;15464;50.988;10.318;2023-02-01T08:18:17;19.92;;;5.55;;
28180;SDS011;15464;50.988;10.318;2023-02-01T08:20:44;13.35;;;4.45;;
28180;SDS011;15464;50.988;10.318;2023-02-01T08:23:12;16.85;;;4.65;;
28180;SDS011;15464;50.988;10.318;2023-02-01T08:25:38;16.30;;;4.47;;
28180;SDS011;15464;50.988;10.318;2023-02-01T08:28:06;17.30;;;4.75;;
28180;SDS011;15464;50.988;10.318;2023-02-01T08:30:33;14.90;;;4.40;;
28180;SDS011;15464;50.988;10.318;2023-02-01T08:33:00;16.60;;;4.35;;
28180;SDS011;15464;50.988;10.318;2023-02-01T08:35:27;15.93;;;4.65;;
28180;SDS011;15464;50.988;10.318;2023-02-01T08:38:08;16.27;;;4.35;;
28180;SDS011;15464;50.988;10.318;2023-02-01T08:40:35;15.27;;;4.38;;
28180;SDS011;15464;50.988;10.318;2023-02-01T08:43:02;17.95;;;4.93;;
28180;SDS011;15464;50.988;10.318;2023-02-01T08:45:28;12.98;;;4.07;;
28180;SDS011;15464;50.988;10.318;2023-02-01T08:47:56;13.88;;;4.32;;
28180;SDS011;15464;50.988;10.318;2023-02-01T08:50:23;15.98;;;4.40;;
28180;SDS011;15464;50.988;10.318;2023-02-01T08:52:52;21.08;;;5.38;;
28180;SDS011;15464;50.988;10.318;2023-02-01T08:55:19;18.58;;;4.65;;
28180;SDS011;15464;50.988;10.318;2023-02-01T08:57:47;24.23;;;6.28;;
28180;SDS011;15464;50.988;10.318;2023-02-01T09:00:14;14.63;;;5.30;;
28180;SDS011;15464;50.988;10.318;2023-02-01T09:02:42;17.70;;;5.45;;
28180;SDS011;15464;50.988;10.318;2023-02-01T09:05:09;17.75;;;5.25;;
28180;SDS011;15464;50.988;10.318;2023-02-01T09:07:37;15.73;;;4.68;;
28180;SDS011;15464;50.988;10.318;2023-02-01T09:10:04;17.27;;;5.20;;
28180;SDS011;15464;50.988;10.318;2023-02-01T09:12:32;17.33;;;4.30;;
28180;SDS011;15464;50.988;10.318;2023-02-01T09:15:00;21.87;;;5.57;;
28180;SDS011;15464;50.988;10.318;2023-02-01T09:17:28;16.63;;;4.82;;
28180;SDS011;15464;50.988;10.318;2023-02-01T09:19:56;14.35;;;4.57;;
28180;SDS011;15464;50.988;10.318;2023-02-01T09:22:23;16.77;;;5.00;;
28180;SDS011;15464;50.988;10.318;2023-02-01T09:24:49;14.63;;;4.50;;
28180;SDS011;15464;50.988;10.318;2023-02-01T09:27:18;13.80;;;4.03;;
28180;SDS011;15464;50.988;10.318;2023-02-01T09:29:45;12.88;;;4.47;;
28180;SDS011;15464;50.988;10.318;2023-02-01T09:32:16;15.68;;;5.10;;
28180;SDS011;15464;50.988;10.318;2023-02-01T09:34:43;13.35;;;4.60;;
28180;SDS011;15464;50.988;10.318;2023-02-01T09:37:09;15.50;;;4.15;;
28180;SDS011;15464;50.988;10.318;2023-02-01T09:39:36;18.63;;;4.68;;
28180;SDS011;15464;50.988;10.318;2023-02-01T09:47:15;12.00;;;4.28;;
28180;SDS011;15464;50.988;10.318;2023-02-01T09:50:08;12.13;;;4.00;;
28180;SDS011;15464;50.988;10.318;2023-02-01T09:55:32;13.43;;;3.75;;
28180;SDS011;15464;50.988;10.318;2023-02-01T10:00:58;13.63;;;3.25;;
28180;SDS011;15464;50.988;10.318;2023-02-01T10:03:30;13.88;;;3.20;;
28180;SDS011;15464;50.988;10.318;2023-02-01T10:09:05;10.90;;;3.25;;
28180;SDS011;15464;50.988;10.318;2023-02-01T10:11:55;11.23;;;3.13;;
28180;SDS011;15464;50.988;10.318;2023-02-01T10:23:27;11.82;;;2.78;;
28180;SDS011;15464;50.988;10.318;2023-02-01T10:26:20;10.10;;;3.08;;
28180;SDS011;15464;50.988;10.318;2023-02-01T10:29:12;10.98;;;3.10;;
28180;SDS011;15464;50.988;10.318;2023-02-01T10:31:44;9.05;;;2.90;;
28180;SDS011;15464;50.988;10.318;2023-02-01T10:36:57;9.10;;;3.08;;
28180;SDS011;15464;50.988;10.318;2023-02-01T10:39:27;8.95;;;3.58;;
28180;SDS011;15464;50.988;10.318;2023-02-01T10:41:54;10.98;;;4.10;;
28180;SDS011;15464;50.988;10.318;2023-02-01T10:44:24;11.05;;;2.72;;
28180;SDS011;15464;50.988;10.318;2023-02-01T10:46:54;9.65;;;2.95;;
28180;SDS011;15464;50.988;10.318;2023-02-01T10:49:26;8.95;;;3.05;;
28180;SDS011;15464;50.988;10.318;2023-02-01T10:52:02;10.63;;;3.60;;
28180;SDS011;15464;50.988;10.318;2023-02-01T10:54:39;10.15;;;2.72;;
28180;SDS011;15464;50.988;10.318;2023-02-01T10:57:10;10.48;;;3.08;;
28180;SDS011;15464;50.988;10.318;2023-02-01T10:59:45;9.77;;;2.83;;
28180;SDS011;15464;50.988;10.318;2023-02-01T11:02:31;10.32;;;3.17;;
28180;SDS011;15464;50.988;10.318;2023-02-01T11:05:02;8.65;;;2.67;;
28180;SDS011;15464;50.988;10.318;2023-02-01T11:07:31;10.38;;;3.42;;
28180;SDS011;15464;50.988;10.318;2023-02-01T11:09:58;12.68;;;3.58;;
28180;SDS011;15464;50.988;10.318;2023-02-01T11:12:35;10.27;;;3.00;;
28180;SDS011;15464;50.988;10.318;2023-02-01T11:15:22;8.03;;;3.37;;
28180;SDS011;15464;50.988;10.318;2023-02-01T11:17:51;10.25;;;2.97;;
28180;SDS011;15464;50.988;10.318;2023-02-01T11:20:20;9.82;;;3.33;;
28180;SDS011;15464;50.988;10.318;2023-02-01T11:23:00;13.10;;;3.38;;
28180;SDS011;15464;50.988;10.318;2023-02-01T11:25:27;13.90;;;3.13;;
28180;SDS011;15464;50.988;10.318;2023-02-01T11:27:55;13.88;;;3.55;;
28180;SDS011;15464;50.988;10.318;2023-02-01T11:30:27;11.52;;;3.05;;
28180;SDS011;15464;50.988;10.318;2023-02-01T11:33:01;8.80;;;2.80;;
28180;SDS011;15464;50.988;10.318;2023-02-01T11:35:32;10.63;;;3.47;;
28180;SDS011;15464;50.988;10.318;2023-02-01T11:38:11;11.02;;;3.00;;
28180;SDS011;15464;50.988;10.318;2023-02-01T11:41:12;9.65;;;3.08;;
28180;SDS011;15464;50.988;10.318;2023-02-01T11:44:00;8.85;;;2.80;;
28180;SDS011;15464;50.988;10.318;2023-02-01T11:46:31;11.48;;;2.80;;
28180;SDS011;15464;50.988;10.318;2023-02-01T11:52:09;11.48;;;3.45;;
28180;SDS011;15464;50.988;10.318;2023-02-01T11:58:02;10.30;;;3.30;;
28180;SDS011;15464;50.988;10.318;2023-02-01T12:00:48;11.30;;;3.40;;
28180;SDS011;15464;50.988;10.318;2023-02-01T12:11:53;17.45;;;4.07;;
28180;SDS011;15464;50.988;10.318;2023-02-01T12:25:30;12.38;;;3.08;;
28180;SDS011;15464;50.988;10.318;2023-02-01T12:31:01;11.13;;;3.83;;
28180;SDS011;15464;50.988;10.318;2023-02-01T12:36:14;11.57;;;3.30;;
28180;SDS011;15464;50.988;10.318;2023-02-01T12:38:57;12.13;;;3.60;;
28180;SDS011;15464;50.988;10.318;2023-02-01T12:49:17;14.55;;;3.60;;
28180;SDS011;15464;50.988;10.318;2023-02-01T12:51:52;13.38;;;3.53;;
28180;SDS011;15464;50.988;10.318;2023-02-01T12:54:29;13.63;;;3.58;;
28180;SDS011;15464;50.988;10.318;2023-02-01T12:57:05;18.17;;;4.78;;
28180;SDS011;15464;50.988;10.318;2023-02-01T13:05:14;12.30;;;3.13;;
28180;SDS011;15464;50.988;10.318;2023-02-01T13:08:07;12.82;;;3.58;;
28180;SDS011;15464;50.988;10.318;2023-02-01T13:10:46;10.80;;;3.05;;
28180;SDS011;15464;50.988;10.318;2023-02-01T13:15:58;13.05;;;3.78;;
28180;SDS011;15464;50.988;10.318;2023-02-01T13:18:34;11.43;;;4.13;;
28180;SDS011;15464;50.988;10.318;2023-02-01T13:21:06;10.85;;;3.35;;
28180;SDS011;15464;50.988;10.318;2023-02-01T13:23:37;15.40;;;3.83;;
28180;SDS011;15464;50.988;10.318;2023-02-01T13:34:29;13.95;;;3.72;;
28180;SDS011;15464;50.988;10.318;2023-02-01T13:43:16;9.23;;;3.00;;
28180;SDS011;15464;50.988;10.318;2023-02-01T13:45:52;10.23;;;3.83;;
28180;SDS011;15464;50.988;10.318;2023-02-01T13:48:27;9.95;;;3.75;;
28180;SDS011;15464;50.988;10.318;2023-02-01T13:50:59;13.95;;;4.20;;
28180;SDS011;15464;50.988;10.318;2023-02-01T13:53:30;13.88;;;3.40;;
28180;SDS011;15464;50.988;10.318;2023-02-01T13:56:01;11.13;;;3.58;;
28180;SDS011;15464;50.988;10.318;2023-02-01T13:58:34;11.00;;;3.85;;
28180;SDS011;15464;50.988;10.318;2023-02-01T14:03:56;9.60;;;2.95;;
28180;SDS011;15464;50.988;10.318;2023-02-01T14:09:18;20.88;;;4.18;;
28180;SDS011;15464;50.988;10.318;2023-02-01T14:11:52;6.95;;;3.38;;
28180;SDS011;15464;50.988;10.318;2023-02-01T14:21:49;9.10;;;3.13;;
28180;SDS011;15464;50.988;10.318;2023-02-01T14:24:23;8.25;;;2.30;;
28180;SDS011;15464;50.988;10.318;2023-02-01T14:26:52;9.80;;;3.20;;
28180;SDS011;15464;50.988;10.318;2023-02-01T14:42:26;12.32;;;2.75;;
28180;SDS011;15464;50.988;10.318;2023-02-01T14:50:41;13.20;;;3.20;;
28180;SDS011;15464;50.988;10.318;2023-02-01T14:53:12;12.55;;;3.28;;
28180;SDS011;15464;50.988;10.318;2023-02-01T14:55:46;12.75;;;3.10;;
28180;SDS011;15464;50.988;10.318;2023-02-01T15:00:52;11.27;;;2.88;;
28180;SDS011;15464;50.988;10.318;2023-02-01T15:08:52;10.13;;;2.88;;
28180;SDS011;15464;50.988;10.318;2023-02-01T15:11:52;11.10;;;2.65;;
28180;SDS011;15464;50.988;10.318;2023-02-01T15:14:23;11.68;;;2.58;;
28180;SDS011;15464;50.988;10.318;2023-02-01T15:16:51;9.00;;;2.42;;
28180;SDS011;15464;50.988;10.318;2023-02-01T15:19:22;9.15;;;2.92;;
28180;SDS011;15464;50.988;10.318;2023-02-01T15:21:51;4.57;;;2.30;;
28180;SDS011;15464;50.988;10.318;2023-02-01T15:26:51;6.60;;;2.42;;
28180;SDS011;15464;50.988;10.318;2023-02-01T15:31:48;4.93;;;2.00;;
28180;SDS011;15464;50.988;10.318;2023-02-01T15:34:17;10.38;;;2.13;;
28180;SDS011;15464;50.988;10.318;2023-02-01T15:36:45;7.72;;;2.22;;
28180;SDS011;15464;50.988;10.318;2023-02-01T15:39:27;6.40;;;2.22;;
28180;SDS011;15464;50.988;10.318;2023-02-01T15:41:58;8.98;;;2.20;;
28180;SDS011;15464;50.988;10.318;2023-02-01T15:44:38;6.05;;;2.47;;
28180;SDS011;15464;50.988;10.318;2023-02-01T15:47:13;9.75;;;2.35;;
28180;SDS011;15464;50.988;10.318;2023-02-01T15:49:43;6.88;;;2.17;;
28180;SDS011;15464;50.988;10.318;2023-02-01T15:52:24;8.60;;;2.45;;
28180;SDS011;15464;50.988;10.318;2023-02-01T15:54:53;7.70;;;2.43;;
28180;SDS011;15464;50.988;10.318;2023-02-01T15:57:26;4.90;;;1.75;;
28180;SDS011;15464;50.988;10.318;2023-02-01T16:00:05;6.22;;;1.88;;
28180;SDS011;15464;50.988;10.318;2023-02-01T16:02:41;6.17;;;2.17;;
28180;SDS011;15464;50.988;10.318;2023-02-01T16:07:57;4.72;;;2.28;;
28180;SDS011;15464;50.988;10.318;2023-02-01T16:10:30;8.73;;;2.20;;
28180;SDS011;15464;50.988;10.318;2023-02-01T16:12:58;5.93;;;2.60;;
28180;SDS011;15464;50.988;10.318;2023-02-01T16:15:26;6.68;;;2.50;;
28180;SDS011;15464;50.988;10.318;2023-02-01T16:17:55;7.07;;;2.58;;
28180;SDS011;15464;50.988;10.318;2023-02-01T16:20:22;7.60;;;2.47;;
28180;SDS011;15464;50.988;10.318;2023-02-01T16:22:48;8.52;;;2.55;;
28180;SDS011;15464;50.988;10.318;2023-02-01T16:25:17;8.10;;;2.33;;
28180;SDS011;15464;50.988;10.318;2023-02-01T16:27:43;7.53;;;2.85;;
28180;SDS011;15464;50.988;10.318;2023-02-01T16:30:10;7.38;;;2.42;;
28180;SDS011;15464;50.988;10.318;2023-02-01T16:32:37;6.97;;;2.38;;
28180;SDS011;15464;50.988;10.318;2023-02-01T16:35:15;7.93;;;2.20;;
28180;SDS011;15464;50.988;10.318;2023-02-01T16:37:48;9.50;;;2.80;;
28180;SDS011;15464;50.988;10.318;2023-02-01T16:40:15;7.93;;;2.60;;
28180;SDS011;15464;50.988;10.318;2023-02-01T16:42:44;8.52;;;2.17;;
28180;SDS011;15464;50.988;10.318;2023-02-01T16:45:12;3.95;;;2.20;;
28180;SDS011;15464;50.988;10.318;2023-02-01T16:47:40;8.10;;;2.28;;
28180;SDS011;15464;50.988;10.318;2023-02-01T16:50:18;5.68;;;2.38;;
28180;SDS011;15464;50.988;10.318;2023-02-01T16:52:49;6.50;;;2.30;;
28180;SDS011;15464;50.988;10.318;2023-02-01T16:55:17;7.55;;;2.10;;
28180;SDS011;15464;50.988;10.318;2023-02-01T16:57:48;8.13;;;2.53;;
28180;SDS011;15464;50.988;10.318;2023-02-01T17:00:15;5.63;;;2.20;;
28180;SDS011;15464;50.988;10.318;2023-02-01T17:02:50;7.07;;;2.38;;
28180;SDS011;15464;50.988;10.318;2023-02-01T17:05:17;4.53;;;2.00;;
28180;SDS011;15464;50.988;10.318;2023-02-01T17:07:44;5.22;;;2.03;;
28180;SDS011;15464;50.988;10.318;2023-02-01T17:10:16;3.60;;;2.40;;
28180;SDS011;15464;50.988;10.318;2023-02-01T17:12:58;6.40;;;2.22;;
28180;SDS011;15464;50.988;10.318;2023-02-01T17:15:26;5.28;;;1.88;;
28180;SDS011;15464;50.988;10.318;2023-02-01T17:17:55;5.20;;;2.30;;
28180;SDS011;15464;50.988;10.318;2023-02-01T17:20:24;9.30;;;2.13;;
28180;SDS011;15464;50.988;10.318;2023-02-01T17:22:55;4.30;;;2.00;;
28180;SDS011;15464;50.988;10.318;2023-02-01T17:25:21;5.82;;;1.83;;
28180;SDS011;15464;50.988;10.318;2023-02-01T17:27:49;7.57;;;2.17;;
28180;SDS011;15464;50.988;10.318;2023-02-01T17:30:16;4.78;;;2.20;;
28180;SDS011;15464;50.988;10.318;2023-02-01T17:32:43;5.80;;;2.28;;
28180;SDS011;15464;50.988;10.318;2023-02-01T17:35:15;6.13;;;2.40;;
28180;SDS011;15464;50.988;10.318;2023-02-01T17:37:45;7.13;;;2.53;;
28180;SDS011;15464;50.988;10.318;2023-02-01T17:40:12;9.20;;;2.65;;